sensor_id;sensor_type;location;lat;lon;timestamp;temperature;humidity
20463;DHT22;10390;53.566;9.980;2023-10-08T00:00:44;25.50;1.00
20463;DHT22;10390;53.566;9.980;2023-10-08T00:03:16;25.50;1.00
20463;DHT22;10390;53.566;9.980;2023-10-08T00:05:46;25.50;1.00
20463;DHT22;10390;53.566;9.980;2023-10-08T00:08:11;25.40;1.00
20463;DHT22;10390;53.566;9.980;2023-10-08T00:10:39;25.50;1.00
20463;DHT22;10390;53.566;9.980;2023-10-08T00:13:09;25.40;1.00
20463;DHT22;10390;53.566;9.980;2023-10-08T00:15:36;25.50;1.00
20463;DHT22;10390;53.566;9.980;2023-10-08T00:18:03;25.40;1.00
20463;DHT22;10390;53.566;9.980;2023-10-08T00:20:34;25.40;1.00
20463;DHT22;10390;53.566;9.980;2023-10-08T00:23:07;25.50;1.00
20463;DHT22;10390;53.566;9.980;2023-10-08T00:25:34;25.40;1.00
20463;DHT22;10390;53.566;9.980;2023-10-08T00:28:08;25.40;1.00
20463;DHT22;10390;53.566;9.980;2023-10-08T00:30:38;25.40;1.00
20463;DHT22;10390;53.566;9.980;2023-10-08T00:33:04;25.40;1.00
20463;DHT22;10390;53.566;9.980;2023-10-08T00:35:30;25.50;1.00
20463;DHT22;10390;53.566;9.980;2023-10-08T00:37:56;25.40;1.00
20463;DHT22;10390;53.566;9.980;2023-10-08T00:40:35;25.40;1.00
20463;DHT22;10390;53.566;9.980;2023-10-08T00:43:02;25.40;1.00
20463;DHT22;10390;53.566;9.980;2023-10-08T00:45:38;25.40;1.00
20463;DHT22;10390;53.566;9.980;2023-10-08T00:48:12;25.40;1.00
20463;DHT22;10390;53.566;9.980;2023-10-08T00:50:47;25.40;1.00
20463;DHT22;10390;53.566;9.980;2023-10-08T00:53:16;25.40;1.00
20463;DHT22;10390;53.566;9.980;2023-10-08T00:55:49;25.40;1.00
20463;DHT22;10390;53.566;9.980;2023-10-08T00:58:30;25.40;1.00
20463;DHT22;10390;53.566;9.980;2023-10-08T01:00:59;25.30;1.00
20463;DHT22;10390;53.566;9.980;2023-10-08T01:03:26;25.40;1.00
20463;DHT22;10390;53.566;9.980;2023-10-08T01:05:56;25.30;1.00
20463;DHT22;10390;53.566;9.980;2023-10-08T01:08:23;25.30;1.00
20463;DHT22;10390;53.566;9.980;2023-10-08T01:13:51;25.30;1.00
20463;DHT22;10390;53.566;9.980;2023-10-08T01:16:20;25.30;1.00
20463;DHT22;10390;53.566;9.980;2023-10-08T01:18:46;25.30;1.00
20463;DHT22;10390;53.566;9.980;2023-10-08T01:21:16;25.30;1.00
20463;DHT22;10390;53.566;9.980;2023-10-08T01:23:56;25.30;1.00
20463;DHT22;10390;53.566;9.980;2023-10-08T01:26:25;25.30;1.00
20463;DHT22;10390;53.566;9.980;2023-10-08T01:28:51;25.40;1.00
20463;DHT22;10390;53.566;9.980;2023-10-08T01:31:20;25.30;1.00
20463;DHT22;10390;53.566;9.980;2023-10-08T01:33:46;25.30;1.00
20463;DHT22;10390;53.566;9.980;2023-10-08T01:36:25;25.30;1.00
20463;DHT22;10390;53.566;9.980;2023-10-08T01:38:51;25.30;1.00
20463;DHT22;10390;53.566;9.980;2023-10-08T01:41:17;25.30;1.00
20463;DHT22;10390;53.566;9.980;2023-10-08T01:43:54;25.30;1.00
20463;DHT22;10390;53.566;9.980;2023-10-08T01:46:20;25.30;1.00
20463;DHT22;10390;53.566;9.980;2023-10-08T01:48:48;25.30;1.00
20463;DHT22;10390;53.566;9.980;2023-10-08T01:51:15;25.30;1.00
20463;DHT22;10390;53.566;9.980;2023-10-08T01:53:52;25.30;1.00
20463;DHT22;10390;53.566;9.980;2023-10-08T01:56:19;25.30;1.00
20463;DHT22;10390;53.566;9.980;2023-10-08T01:58:45;25.30;1.00
20463;DHT22;10390;53.566;9.980;2023-10-08T02:01:12;25.30;1.00
20463;DHT22;10390;53.566;9.980;2023-10-08T02:03:38;25.30;1.00
20463;DHT22;10390;53.566;9.980;2023-10-08T02:06:04;25.30;1.00
20463;DHT22;10390;53.566;9.980;2023-10-08T02:08:31;25.30;1.00
20463;DHT22;10390;53.566;9.980;2023-10-08T02:10:57;25.30;1.00
20463;DHT22;10390;53.566;9.980;2023-10-08T02:13:23;25.30;1.00
20463;DHT22;10390;53.566;9.980;2023-10-08T02:15:52;25.30;1.00
20463;DHT22;10390;53.566;9.980;2023-10-08T02:18:18;25.30;1.00
20463;DHT22;10390;53.566;9.980;2023-10-08T02:20:44;25.30;1.00
20463;DHT22;10390;53.566;9.980;2023-10-08T02:23:10;25.30;1.00
20463;DHT22;10390;53.566;9.980;2023-10-08T02:25:39;25.30;1.00
20463;DHT22;10390;53.566;9.980;2023-10-08T02:28:08;25.30;1.00
20463;DHT22;10390;53.566;9.980;2023-10-08T02:30:37;25.30;1.00
20463;DHT22;10390;53.566;9.980;2023-10-08T02:33:05;25.30;1.00
20463;DHT22;10390;53.566;9.980;2023-10-08T02:35:43;25.30;1.00
20463;DHT22;10390;53.566;9.980;2023-10-08T02:38:10;25.20;1.00
20463;DHT22;10390;53.566;9.980;2023-10-08T02:40:38;25.20;1.00
20463;DHT22;10390;53.566;9.980;2023-10-08T02:43:10;25.30;1.00
20463;DHT22;10390;53.566;9.980;2023-10-08T02:45:37;25.30;1.00
20463;DHT22;10390;53.566;9.980;2023-10-08T02:48:10;25.30;1.00
20463;DHT22;10390;53.566;9.980;2023-10-08T02:50:39;25.20;1.00
20463;DHT22;10390;53.566;9.980;2023-10-08T02:53:06;25.20;1.00
20463;DHT22;10390;53.566;9.980;2023-10-08T02:55:41;25.20;1.00
20463;DHT22;10390;53.566;9.980;2023-10-08T02:58:10;25.20;1.00
20463;DHT22;10390;53.566;9.980;2023-10-08T03:00:44;25.20;1.00
20463;DHT22;10390;53.566;9.980;2023-10-08T03:03:13;25.20;1.00
20463;DHT22;10390;53.566;9.980;2023-10-08T03:05:47;25.20;1.00
20463;DHT22;10390;53.566;9.980;2023-10-08T03:08:14;25.20;1.00
20463;DHT22;10390;53.566;9.980;2023-10-08T03:10:45;25.10;1.00
20463;DHT22;10390;53.566;9.980;2023-10-08T03:13:10;25.20;1.00
20463;DHT22;10390;53.566;9.980;2023-10-08T03:15:40;25.20;1.00
20463;DHT22;10390;53.566;9.980;2023-10-08T03:18:11;25.20;1.00
20463;DHT22;10390;53.566;9.980;2023-10-08T03:20:40;25.20;1.00
20463;DHT22;10390;53.566;9.980;2023-10-08T03:23:06;25.10;1.00
20463;DHT22;10390;53.566;9.980;2023-10-08T03:25:40;25.10;1.00
20463;DHT22;10390;53.566;9.980;2023-10-08T03:28:11;25.10;1.00
20463;DHT22;10390;53.566;9.980;2023-10-08T03:30:39;25.10;1.00
20463;DHT22;10390;53.566;9.980;2023-10-08T03:33:17;25.10;1.00
20463;DHT22;10390;53.566;9.980;2023-10-08T03:35:51;25.10;1.00
20463;DHT22;10390;53.566;9.980;2023-10-08T03:38:21;25.10;1.00
20463;DHT22;10390;53.566;9.980;2023-10-08T03:40:54;25.10;1.00
20463;DHT22;10390;53.566;9.980;2023-10-08T03:43:23;25.10;1.00
20463;DHT22;10390;53.566;9.980;2023-10-08T03:45:59;25.10;1.00
20463;DHT22;10390;53.566;9.980;2023-10-08T03:48:34;25.10;1.00
20463;DHT22;10390;53.566;9.980;2023-10-08T03:51:02;25.10;1.00
20463;DHT22;10390;53.566;9.980;2023-10-08T03:53:35;25.10;1.00
20463;DHT22;10390;53.566;9.980;2023-10-08T03:56:08;25.10;1.00
20463;DHT22;10390;53.566;9.980;2023-10-08T03:58:34;25.10;1.00
20463;DHT22;10390;53.566;9.980;2023-10-08T04:01:06;25.10;1.00
20463;DHT22;10390;53.566;9.980;2023-10-08T04:03:36;25.10;1.00
20463;DHT22;10390;53.566;9.980;2023-10-08T04:06:20;25.10;1.00
20463;DHT22;10390;53.566;9.980;2023-10-08T04:08:56;25.10;1.00
20463;DHT22;10390;53.566;9.980;2023-10-08T04:11:31;25.10;1.00
20463;DHT22;10390;53.566;9.980;2023-10-08T04:14:01;25.10;1.00
20463;DHT22;10390;53.566;9.980;2023-10-08T04:16:28;25.10;1.00
20463;DHT22;10390;53.566;9.980;2023-10-08T04:18:55;25.10;1.00
20463;DHT22;10390;53.566;9.980;2023-10-08T04:21:24;25.10;1.00
20463;DHT22;10390;53.566;9.980;2023-10-08T04:23:53;25.10;1.00
20463;DHT22;10390;53.566;9.980;2023-10-08T04:26:19;25.10;1.00
20463;DHT22;10390;53.566;9.980;2023-10-08T04:28:50;25.10;1.00
20463;DHT22;10390;53.566;9.980;2023-10-08T04:31:20;25.10;1.00
20463;DHT22;10390;53.566;9.980;2023-10-08T04:33:50;25.10;1.00
20463;DHT22;10390;53.566;9.980;2023-10-08T04:36:16;25.20;1.00
20463;DHT22;10390;53.566;9.980;2023-10-08T04:38:46;25.10;1.00
20463;DHT22;10390;53.566;9.980;2023-10-08T04:41:14;25.10;1.00
20463;DHT22;10390;53.566;9.980;2023-10-08T04:43:44;25.10;1.00
20463;DHT22;10390;53.566;9.980;2023-10-08T04:46:10;25.10;1.00
20463;DHT22;10390;53.566;9.980;2023-10-08T04:48:48;25.10;1.00
20463;DHT22;10390;53.566;9.980;2023-10-08T04:51:15;25.10;1.00
20463;DHT22;10390;53.566;9.980;2023-10-08T04:53:43;25.10;1.00
20463;DHT22;10390;53.566;9.980;2023-10-08T04:56:12;25.10;1.00
20463;DHT22;10390;53.566;9.980;2023-10-08T04:58:45;25.00;1.00
20463;DHT22;10390;53.566;9.980;2023-10-08T05:01:16;25.10;1.00
20463;DHT22;10390;53.566;9.980;2023-10-08T05:04:01;25.10;1.00
20463;DHT22;10390;53.566;9.980;2023-10-08T05:06:29;25.10;1.00
20463;DHT22;10390;53.566;9.980;2023-10-08T05:09:09;25.10;1.00
20463;DHT22;10390;53.566;9.980;2023-10-08T05:11:45;25.10;1.00
20463;DHT22;10390;53.566;9.980;2023-10-08T05:14:21;25.00;1.00
20463;DHT22;10390;53.566;9.980;2023-10-08T05:17:04;25.10;1.00
20463;DHT22;10390;53.566;9.980;2023-10-08T05:19:41;25.00;1.00
20463;DHT22;10390;53.566;9.980;2023-10-08T05:22:16;25.00;1.00
20463;DHT22;10390;53.566;9.980;2023-10-08T05:24:56;25.00;1.00
20463;DHT22;10390;53.566;9.980;2023-10-08T05:27:53;25.00;1.00
20463;DHT22;10390;53.566;9.980;2023-10-08T05:30:20;25.00;1.00
20463;DHT22;10390;53.566;9.980;2023-10-08T05:33:08;25.00;1.00
20463;DHT22;10390;53.566;9.980;2023-10-08T05:35:49;25.00;1.00
20463;DHT22;10390;53.566;9.980;2023-10-08T05:38:20;25.00;1.00
20463;DHT22;10390;53.566;9.980;2023-10-08T05:40:51;25.00;1.00
20463;DHT22;10390;53.566;9.980;2023-10-08T05:48:50;25.00;1.00
20463;DHT22;10390;53.566;9.980;2023-10-08T05:51:35;25.00;1.00
20463;DHT22;10390;53.566;9.980;2023-10-08T05:54:17;25.00;1.00
20463;DHT22;10390;53.566;9.980;2023-10-08T05:57:05;25.00;1.00
20463;DHT22;10390;53.566;9.980;2023-10-08T05:59:38;24.90;1.00
20463;DHT22;10390;53.566;9.980;2023-10-08T06:02:28;25.00;1.00
20463;DHT22;10390;53.566;9.980;2023-10-08T06:05:01;25.00;1.00
20463;DHT22;10390;53.566;9.980;2023-10-08T06:07:49;24.90;1.00
20463;DHT22;10390;53.566;9.980;2023-10-08T06:10:22;25.00;1.00
20463;DHT22;10390;53.566;9.980;2023-10-08T06:13:07;24.90;1.00
20463;DHT22;10390;53.566;9.980;2023-10-08T06:15:56;25.00;1.00
20463;DHT22;10390;53.566;9.980;2023-10-08T06:18:28;25.00;1.00
20463;DHT22;10390;53.566;9.980;2023-10-08T06:23:27;25.00;1.00
20463;DHT22;10390;53.566;9.980;2023-10-08T06:25:54;24.90;1.00
20463;DHT22;10390;53.566;9.980;2023-10-08T06:28:25;24.90;1.00
20463;DHT22;10390;53.566;9.980;2023-10-08T06:30:53;25.00;1.00
20463;DHT22;10390;53.566;9.980;2023-10-08T06:33:20;24.90;1.00
20463;DHT22;10390;53.566;9.980;2023-10-08T06:35:47;25.00;1.00
20463;DHT22;10390;53.566;9.980;2023-10-08T06:38:27;24.90;1.00
20463;DHT22;10390;53.566;9.980;2023-10-08T06:40:54;25.00;1.00
20463;DHT22;10390;53.566;9.980;2023-10-08T06:43:22;24.90;1.00
20463;DHT22;10390;53.566;9.980;2023-10-08T06:45:50;25.00;1.00
20463;DHT22;10390;53.566;9.980;2023-10-08T06:48:19;25.00;1.00
20463;DHT22;10390;53.566;9.980;2023-10-08T06:50:49;25.00;1.00
20463;DHT22;10390;53.566;9.980;2023-10-08T06:53:15;25.00;1.00
20463;DHT22;10390;53.566;9.980;2023-10-08T06:55:46;25.00;1.00
20463;DHT22;10390;53.566;9.980;2023-10-08T06:58:14;25.10;1.00
20463;DHT22;10390;53.566;9.980;2023-10-08T07:00:40;25.00;1.00
20463;DHT22;10390;53.566;9.980;2023-10-08T07:03:13;25.10;1.00
20463;DHT22;10390;53.566;9.980;2023-10-08T07:05:45;25.10;1.00
20463;DHT22;10390;53.566;9.980;2023-10-08T07:08:21;25.10;1.00
20463;DHT22;10390;53.566;9.980;2023-10-08T07:10:49;25.10;1.00
20463;DHT22;10390;53.566;9.980;2023-10-08T07:13:15;25.20;1.00
20463;DHT22;10390;53.566;9.980;2023-10-08T07:15:43;25.20;1.00
20463;DHT22;10390;53.566;9.980;2023-10-08T07:18:11;25.20;1.00
20463;DHT22;10390;53.566;9.980;2023-10-08T07:20:40;25.20;1.00
20463;DHT22;10390;53.566;9.980;2023-10-08T07:23:08;25.30;1.00
20463;DHT22;10390;53.566;9.980;2023-10-08T07:26:01;25.30;1.00
20463;DHT22;10390;53.566;9.980;2023-10-08T07:28:39;25.30;1.00
20463;DHT22;10390;53.566;9.980;2023-10-08T07:31:16;25.30;1.00
20463;DHT22;10390;53.566;9.980;2023-10-08T07:33:50;25.30;1.00
20463;DHT22;10390;53.566;9.980;2023-10-08T07:36:25;25.40;1.00
20463;DHT22;10390;53.566;9.980;2023-10-08T07:38:52;25.50;1.00
20463;DHT22;10390;53.566;9.980;2023-10-08T07:41:19;25.50;1.00
20463;DHT22;10390;53.566;9.980;2023-10-08T07:43:46;25.50;1.00
20463;DHT22;10390;53.566;9.980;2023-10-08T07:46:24;25.60;1.00
20463;DHT22;10390;53.566;9.980;2023-10-08T07:48:52;25.50;1.00
20463;DHT22;10390;53.566;9.980;2023-10-08T07:51:17;25.60;1.00
20463;DHT22;10390;53.566;9.980;2023-10-08T07:53:48;25.60;1.00
20463;DHT22;10390;53.566;9.980;2023-10-08T07:56:14;25.70;1.00
20463;DHT22;10390;53.566;9.980;2023-10-08T07:58:40;25.70;1.00
20463;DHT22;10390;53.566;9.980;2023-10-08T08:01:07;25.80;1.00
20463;DHT22;10390;53.566;9.980;2023-10-08T08:03:33;25.80;1.00
20463;DHT22;10390;53.566;9.980;2023-10-08T08:06:06;25.80;1.00
20463;DHT22;10390;53.566;9.980;2023-10-08T08:08:33;25.80;1.00
20463;DHT22;10390;53.566;9.980;2023-10-08T08:10:59;25.90;1.00
20463;DHT22;10390;53.566;9.980;2023-10-08T08:13:32;25.90;1.00
20463;DHT22;10390;53.566;9.980;2023-10-08T08:15:59;25.90;1.00
20463;DHT22;10390;53.566;9.980;2023-10-08T08:18:36;26.00;1.00
20463;DHT22;10390;53.566;9.980;2023-10-08T08:21:02;26.00;1.00
20463;DHT22;10390;53.566;9.980;2023-10-08T08:23:30;26.00;1.00
20463;DHT22;10390;53.566;9.980;2023-10-08T08:25:57;26.10;1.00
20463;DHT22;10390;53.566;9.980;2023-10-08T08:28:39;26.10;1.00
20463;DHT22;10390;53.566;9.980;2023-10-08T08:31:06;26.10;1.00
20463;DHT22;10390;53.566;9.980;2023-10-08T08:33:42;26.10;1.00
20463;DHT22;10390;53.566;9.980;2023-10-08T08:36:29;26.10;1.00
20463;DHT22;10390;53.566;9.980;2023-10-08T08:38:55;26.20;1.00
20463;DHT22;10390;53.566;9.980;2023-10-08T08:41:22;26.20;1.00
20463;DHT22;10390;53.566;9.980;2023-10-08T08:43:50;26.30;1.00
20463;DHT22;10390;53.566;9.980;2023-10-08T08:46:34;26.30;1.00
20463;DHT22;10390;53.566;9.980;2023-10-08T08:49:10;26.30;1.00
20463;DHT22;10390;53.566;9.980;2023-10-08T08:51:37;26.30;1.00
20463;DHT22;10390;53.566;9.980;2023-10-08T08:54:04;26.40;1.00
20463;DHT22;10390;53.566;9.980;2023-10-08T08:56:36;26.40;1.00
20463;DHT22;10390;53.566;9.980;2023-10-08T08:59:04;26.40;1.00
20463;DHT22;10390;53.566;9.980;2023-10-08T09:01:31;26.40;1.00
20463;DHT22;10390;53.566;9.980;2023-10-08T09:04:05;26.50;1.00
20463;DHT22;10390;53.566;9.980;2023-10-08T09:06:36;26.50;1.00
20463;DHT22;10390;53.566;9.980;2023-10-08T09:09:05;26.60;1.00
20463;DHT22;10390;53.566;9.980;2023-10-08T09:11:49;26.60;1.00
20463;DHT22;10390;53.566;9.980;2023-10-08T09:14:22;26.70;1.00
20463;DHT22;10390;53.566;9.980;2023-10-08T09:16:49;26.70;1.00
20463;DHT22;10390;53.566;9.980;2023-10-08T09:19:16;26.70;1.00
20463;DHT22;10390;53.566;9.980;2023-10-08T09:22:05;26.70;1.00
20463;DHT22;10390;53.566;9.980;2023-10-08T09:24:37;26.70;1.00
20463;DHT22;10390;53.566;9.980;2023-10-08T09:27:04;26.80;1.00
20463;DHT22;10390;53.566;9.980;2023-10-08T09:29:30;26.80;1.00
20463;DHT22;10390;53.566;9.980;2023-10-08T09:31:57;26.80;1.00
20463;DHT22;10390;53.566;9.980;2023-10-08T09:34:29;26.90;1.00
20463;DHT22;10390;53.566;9.980;2023-10-08T09:36:58;26.90;1.00
20463;DHT22;10390;53.566;9.980;2023-10-08T09:39:26;26.90;1.00
20463;DHT22;10390;53.566;9.980;2023-10-08T09:41:57;26.90;1.00
20463;DHT22;10390;53.566;9.980;2023-10-08T09:44:24;27.00;1.00
20463;DHT22;10390;53.566;9.980;2023-10-08T09:46:57;27.00;1.00
20463;DHT22;10390;53.566;9.980;2023-10-08T09:49:52;27.00;1.00
20463;DHT22;10390;53.566;9.980;2023-10-08T09:52:23;27.10;1.00
20463;DHT22;10390;53.566;9.980;2023-10-08T09:54:55;27.10;1.00
20463;DHT22;10390;53.566;9.980;2023-10-08T09:57:22;27.10;1.00
20463;DHT22;10390;53.566;9.980;2023-10-08T09:59:51;27.10;1.00
20463;DHT22;10390;53.566;9.980;2023-10-08T10:02:17;27.20;1.00
20463;DHT22;10390;53.566;9.980;2023-10-08T10:04:44;27.20;1.00
20463;DHT22;10390;53.566;9.980;2023-10-08T10:07:11;27.20;1.00
20463;DHT22;10390;53.566;9.980;2023-10-08T10:09:46;27.20;1.00
20463;DHT22;10390;53.566;9.980;2023-10-08T10:12:15;27.30;1.00
20463;DHT22;10390;53.566;9.980;2023-10-08T10:14:45;27.30;1.00
20463;DHT22;10390;53.566;9.980;2023-10-08T10:17:19;27.30;1.00
20463;DHT22;10390;53.566;9.980;2023-10-08T10:19:50;27.30;1.00
20463;DHT22;10390;53.566;9.980;2023-10-08T10:22:36;27.30;1.00
20463;DHT22;10390;53.566;9.980;2023-10-08T10:25:04;27.30;1.00
20463;DHT22;10390;53.566;9.980;2023-10-08T10:27:42;27.30;1.00
20463;DHT22;10390;53.566;9.980;2023-10-08T10:30:08;27.40;1.00
20463;DHT22;10390;53.566;9.980;2023-10-08T10:32:37;27.40;1.00
20463;DHT22;10390;53.566;9.980;2023-10-08T10:35:03;27.40;1.00
20463;DHT22;10390;53.566;9.980;2023-10-08T10:37:32;27.40;1.00
20463;DHT22;10390;53.566;9.980;2023-10-08T10:40:07;27.40;1.00
20463;DHT22;10390;53.566;9.980;2023-10-08T10:42:38;27.40;1.00
20463;DHT22;10390;53.566;9.980;2023-10-08T10:45:17;27.40;1.00
20463;DHT22;10390;53.566;9.980;2023-10-08T10:48:04;27.40;1.00
20463;DHT22;10390;53.566;9.980;2023-10-08T10:50:40;27.40;1.00
20463;DHT22;10390;53.566;9.980;2023-10-08T10:53:24;27.40;1.00
20463;DHT22;10390;53.566;9.980;2023-10-08T10:55:52;27.50;1.00
20463;DHT22;10390;53.566;9.980;2023-10-08T10:58:28;27.40;1.00
20463;DHT22;10390;53.566;9.980;2023-10-08T11:01:04;27.50;1.00
20463;DHT22;10390;53.566;9.980;2023-10-08T11:03:33;27.40;1.00
20463;DHT22;10390;53.566;9.980;2023-10-08T11:06:00;27.50;1.00
20463;DHT22;10390;53.566;9.980;2023-10-08T11:08:31;27.50;1.00
20463;DHT22;10390;53.566;9.980;2023-10-08T11:11:00;27.50;1.00
20463;DHT22;10390;53.566;9.980;2023-10-08T11:13:33;27.50;1.00
20463;DHT22;10390;53.566;9.980;2023-10-08T11:16:05;27.50;1.00
20463;DHT22;10390;53.566;9.980;2023-10-08T11:18:33;27.50;1.00
20463;DHT22;10390;53.566;9.980;2023-10-08T11:21:09;27.50;1.00
20463;DHT22;10390;53.566;9.980;2023-10-08T11:23:43;27.60;1.00
20463;DHT22;10390;53.566;9.980;2023-10-08T11:26:12;27.60;1.00
20463;DHT22;10390;53.566;9.980;2023-10-08T11:28:40;27.50;1.00
20463;DHT22;10390;53.566;9.980;2023-10-08T11:31:13;27.50;1.00
20463;DHT22;10390;53.566;9.980;2023-10-08T11:33:44;27.60;1.00
20463;DHT22;10390;53.566;9.980;2023-10-08T11:36:30;27.50;1.00
20463;DHT22;10390;53.566;9.980;2023-10-08T11:39:11;27.60;1.00
20463;DHT22;10390;53.566;9.980;2023-10-08T11:41:39;27.60;1.00
20463;DHT22;10390;53.566;9.980;2023-10-08T11:44:17;27.60;1.00
20463;DHT22;10390;53.566;9.980;2023-10-08T11:46:45;27.60;1.00
20463;DHT22;10390;53.566;9.980;2023-10-08T11:49:19;27.60;1.00
20463;DHT22;10390;53.566;9.980;2023-10-08T11:51:51;27.60;1.00
20463;DHT22;10390;53.566;9.980;2023-10-08T11:54:17;27.60;1.00
20463;DHT22;10390;53.566;9.980;2023-10-08T11:56:45;27.60;1.00
20463;DHT22;10390;53.566;9.980;2023-10-08T11:59:12;27.60;1.00
20463;DHT22;10390;53.566;9.980;2023-10-08T12:01:39;27.60;1.00
20463;DHT22;10390;53.566;9.980;2023-10-08T12:04:08;27.60;1.00
20463;DHT22;10390;53.566;9.980;2023-10-08T12:06:42;27.60;1.00
20463;DHT22;10390;53.566;9.980;2023-10-08T12:09:17;27.60;1.00
20463;DHT22;10390;53.566;9.980;2023-10-08T12:11:48;27.60;1.00
20463;DHT22;10390;53.566;9.980;2023-10-08T12:14:14;27.70;1.00
20463;DHT22;10390;53.566;9.980;2023-10-08T12:16:40;27.70;1.00
20463;DHT22;10390;53.566;9.980;2023-10-08T12:19:07;27.70;1.00
20463;DHT22;10390;53.566;9.980;2023-10-08T12:21:43;27.70;1.00
20463;DHT22;10390;53.566;9.980;2023-10-08T12:24:12;27.70;1.00
20463;DHT22;10390;53.566;9.980;2023-10-08T12:26:39;27.70;1.00
20463;DHT22;10390;53.566;9.980;2023-10-08T12:29:11;27.70;1.00
20463;DHT22;10390;53.566;9.980;2023-10-08T12:31:40;27.70;1.00
20463;DHT22;10390;53.566;9.980;2023-10-08T12:34:05;27.60;1.00
20463;DHT22;10390;53.566;9.980;2023-10-08T12:36:31;27.60;1.00
20463;DHT22;10390;53.566;9.980;2023-10-08T12:39:01;27.60;1.00
20463;DHT22;10390;53.566;9.980;2023-10-08T12:41:34;27.60;1.00
20463;DHT22;10390;53.566;9.980;2023-10-08T12:44:04;27.60;1.00
20463;DHT22;10390;53.566;9.980;2023-10-08T12:46:33;27.60;1.00
20463;DHT22;10390;53.566;9.980;2023-10-08T12:48:59;27.60;1.00
20463;DHT22;10390;53.566;9.980;2023-10-08T12:51:27;27.50;1.00
20463;DHT22;10390;53.566;9.980;2023-10-08T12:53:57;27.60;1.00
20463;DHT22;10390;53.566;9.980;2023-10-08T12:56:30;27.50;1.00
20463;DHT22;10390;53.566;9.980;2023-10-08T12:59:04;27.50;1.00
20463;DHT22;10390;53.566;9.980;2023-10-08T13:01:33;27.50;1.00
20463;DHT22;10390;53.566;9.980;2023-10-08T13:04:01;27.50;1.00
20463;DHT22;10390;53.566;9.980;2023-10-08T13:06:32;27.50;1.00
20463;DHT22;10390;53.566;9.980;2023-10-08T13:08:58;27.50;1.00
20463;DHT22;10390;53.566;9.980;2023-10-08T13:11:26;27.50;1.00
20463;DHT22;10390;53.566;9.980;2023-10-08T13:13:55;27.40;1.00
20463;DHT22;10390;53.566;9.980;2023-10-08T13:16:25;27.50;1.00
20463;DHT22;10390;53.566;9.980;2023-10-08T13:18:51;27.50;1.00
20463;DHT22;10390;53.566;9.980;2023-10-08T13:21:18;27.40;1.00
20463;DHT22;10390;53.566;9.980;2023-10-08T13:23:53;27.40;1.00
20463;DHT22;10390;53.566;9.980;2023-10-08T13:26:19;27.40;1.00
20463;DHT22;10390;53.566;9.980;2023-10-08T13:28:48;27.40;1.00
20463;DHT22;10390;53.566;9.980;2023-10-08T13:31:14;27.40;1.00
20463;DHT22;10390;53.566;9.980;2023-10-08T13:33:43;27.40;1.00
20463;DHT22;10390;53.566;9.980;2023-10-08T13:36:10;27.40;1.00
20463;DHT22;10390;53.566;9.980;2023-10-08T13:38:37;27.40;1.00
20463;DHT22;10390;53.566;9.980;2023-10-08T13:41:06;27.40;1.00
20463;DHT22;10390;53.566;9.980;2023-10-08T13:43:40;27.40;1.00
20463;DHT22;10390;53.566;9.980;2023-10-08T13:46:07;27.40;1.00
20463;DHT22;10390;53.566;9.980;2023-10-08T13:48:39;27.30;1.00
20463;DHT22;10390;53.566;9.980;2023-10-08T13:51:06;27.30;1.00
20463;DHT22;10390;53.566;9.980;2023-10-08T13:53:36;27.30;1.00
20463;DHT22;10390;53.566;9.980;2023-10-08T13:56:04;27.30;1.00
20463;DHT22;10390;53.566;9.980;2023-10-08T13:58:33;27.30;1.00
20463;DHT22;10390;53.566;9.980;2023-10-08T14:01:11;27.30;1.00
20463;DHT22;10390;53.566;9.980;2023-10-08T14:03:49;27.30;1.00
20463;DHT22;10390;53.566;9.980;2023-10-08T14:06:19;27.30;1.00
20463;DHT22;10390;53.566;9.980;2023-10-08T14:08:46;27.30;1.00
20463;DHT22;10390;53.566;9.980;2023-10-08T14:11:19;27.30;1.00
20463;DHT22;10390;53.566;9.980;2023-10-08T14:13:44;27.30;1.00
20463;DHT22;10390;53.566;9.980;2023-10-08T14:16:12;27.20;1.00
20463;DHT22;10390;53.566;9.980;2023-10-08T14:18:39;27.30;1.00
20463;DHT22;10390;53.566;9.980;2023-10-08T14:21:11;27.20;1.00
20463;DHT22;10390;53.566;9.980;2023-10-08T14:23:37;27.20;1.00
20463;DHT22;10390;53.566;9.980;2023-10-08T14:26:05;27.20;1.00
20463;DHT22;10390;53.566;9.980;2023-10-08T14:28:33;27.20;1.00
20463;DHT22;10390;53.566;9.980;2023-10-08T14:31:18;27.20;1.00
20463;DHT22;10390;53.566;9.980;2023-10-08T14:33:48;27.20;1.00
20463;DHT22;10390;53.566;9.980;2023-10-08T14:36:48;27.20;1.00
20463;DHT22;10390;53.566;9.980;2023-10-08T14:39:33;27.20;1.00
20463;DHT22;10390;53.566;9.980;2023-10-08T14:42:18;27.20;1.00
20463;DHT22;10390;53.566;9.980;2023-10-08T14:45:03;27.20;1.00
20463;DHT22;10390;53.566;9.980;2023-10-08T14:47:39;27.10;1.00
20463;DHT22;10390;53.566;9.980;2023-10-08T14:50:06;27.10;1.00
20463;DHT22;10390;53.566;9.980;2023-10-08T14:52:44;27.10;1.00
20463;DHT22;10390;53.566;9.980;2023-10-08T14:55:10;27.10;1.00
20463;DHT22;10390;53.566;9.980;2023-10-08T14:57:38;27.10;1.00
20463;DHT22;10390;53.566;9.980;2023-10-08T15:00:05;27.10;1.00
20463;DHT22;10390;53.566;9.980;2023-10-08T15:02:31;27.10;1.00
20463;DHT22;10390;53.566;9.980;2023-10-08T15:04:58;27.10;1.00
20463;DHT22;10390;53.566;9.980;2023-10-08T15:07:29;27.10;1.00
20463;DHT22;10390;53.566;9.980;2023-10-08T15:09:54;27.10;1.00
20463;DHT22;10390;53.566;9.980;2023-10-08T15:12:26;27.10;1.00
20463;DHT22;10390;53.566;9.980;2023-10-08T15:14:52;27.10;1.00
20463;DHT22;10390;53.566;9.980;2023-10-08T15:17:18;27.10;1.00
20463;DHT22;10390;53.566;9.980;2023-10-08T15:19:44;27.10;1.00
20463;DHT22;10390;53.566;9.980;2023-10-08T15:22:12;27.10;1.00
20463;DHT22;10390;53.566;9.980;2023-10-08T15:24:37;27.10;1.00
20463;DHT22;10390;53.566;9.980;2023-10-08T15:27:05;27.00;1.00
20463;DHT22;10390;53.566;9.980;2023-10-08T15:29:31;27.10;1.00
20463;DHT22;10390;53.566;9.980;2023-10-08T15:31:58;27.00;1.00
20463;DHT22;10390;53.566;9.980;2023-10-08T15:34:24;27.10;1.00
20463;DHT22;10390;53.566;9.980;2023-10-08T15:36:54;27.00;1.00
20463;DHT22;10390;53.566;9.980;2023-10-08T15:39:20;27.00;1.00
20463;DHT22;10390;53.566;9.980;2023-10-08T15:41:51;27.10;1.00
20463;DHT22;10390;53.566;9.980;2023-10-08T15:44:18;27.00;1.00
20463;DHT22;10390;53.566;9.980;2023-10-08T15:46:46;27.00;1.00
20463;DHT22;10390;53.566;9.980;2023-10-08T15:49:12;27.10;1.00
20463;DHT22;10390;53.566;9.980;2023-10-08T15:51:38;27.00;1.00
20463;DHT22;10390;53.566;9.980;2023-10-08T15:54:05;27.10;1.00
20463;DHT22;10390;53.566;9.980;2023-10-08T15:56:32;27.10;1.00
20463;DHT22;10390;53.566;9.980;2023-10-08T15:58:58;27.00;1.00
20463;DHT22;10390;53.566;9.980;2023-10-08T16:01:23;27.00;1.00
20463;DHT22;10390;53.566;9.980;2023-10-08T16:03:51;27.00;1.00
20463;DHT22;10390;53.566;9.980;2023-10-08T16:06:18;27.00;1.00
20463;DHT22;10390;53.566;9.980;2023-10-08T16:08:45;27.00;1.00
20463;DHT22;10390;53.566;9.980;2023-10-08T16:11:11;27.10;1.00
20463;DHT22;10390;53.566;9.980;2023-10-08T16:13:37;27.00;1.00
20463;DHT22;10390;53.566;9.980;2023-10-08T16:16:04;27.00;1.00
20463;DHT22;10390;53.566;9.980;2023-10-08T16:18:32;27.00;1.00